Time;durP1;ratioP1;P1;durP2;ratioP2;P2;SDS_P1;SDS_P2;PMS_P1;PMS_P2;Temp;Humidity;BMP_temperature;BMP_pressure;BME280_temperature;BME280_humidity;BME280_pressure;Samples;Min_cycle;Max_cycle;Signal;HPM_P1;HPM_P2
2022/04/26 03:37:11;;;;;;;16.95;4.85;;;;;;;;;;5016326;28;93281;-65
2022/04/26 03:39:38;;;;;;;12.10;5.43;;;;;;;;;;5013799;28;92344;-65
2022/04/26 03:42:05;;;;;;;13.75;5.53;;;;;;;;;;5014794;28;93432;-65
2022/04/26 03:44:31;;;;;;;11.48;5.13;;;;;;;;;;5014303;28;93486;-65
2022/04/26 03:46:57;;;;;;;10.02;5.07;;;;;;;;;;5014616;28;92402;-65
2022/04/26 03:49:24;;;;;;;17.25;5.65;;;;;;;;;;5003711;28;92777;-65
2022/04/26 03:51:52;;;;;;;15.93;5.07;;;;;;;;;;4994705;28;92795;-65
2022/04/26 03:54:21;;;;;;;14.38;5.97;;;;;;;;;;5005751;28;93410;-65
2022/04/26 03:56:48;;;;;;;9.18;5.70;;;;;;;;;;5003749;28;96867;-66
2022/04/26 03:59:14;;;;;;;10.52;5.32;;;;;;;;;;5010882;28;92532;-65
2022/04/26 04:01:40;;;;;;;12.60;5.78;;;;;;;;;;5014229;28;93105;-66
2022/04/26 04:04:07;;;;;;;8.10;5.10;;;;;;;;;;5013704;28;93404;-65
2022/04/26 04:06:33;;;;;;;10.45;5.30;;;;;;;;;;5013877;28;92420;-65
2022/04/26 04:08:59;;;;;;;12.45;5.55;;;;;;;;;;5013705;28;94249;-65
2022/04/26 04:11:26;;;;;;;9.25;5.28;;;;;;;;;;5020511;28;92425;-65
2022/04/26 04:13:52;;;;;;;17.17;5.70;;;;;;;;;;5013476;28;93024;-65
2022/04/26 04:16:18;;;;;;;13.82;5.88;;;;;;;;;;5008355;28;93932;-66
2022/04/26 04:21:29;;;;;;;11.07;5.93;;;;;;;;;;5015996;28;94774;-65
2022/04/26 04:23:56;;;;;;;15.45;5.97;;;;;;;;;;5016448;28;92502;-65
2022/04/26 04:26:22;;;;;;;15.00;5.80;;;;;;;;;;5004553;28;92720;-65
2022/04/26 04:28:48;;;;;;;9.65;6.05;;;;;;;;;;5011658;28;93175;-65
2022/04/26 04:31:15;;;;;;;16.48;6.65;;;;;;;;;;5014945;28;96315;-65
2022/04/26 04:33:43;;;;;;;11.68;6.32;;;;;;;;;;5017743;28;92704;-65
2022/04/26 04:36:09;;;;;;;19.10;6.70;;;;;;;;;;5023247;28;93527;-65
2022/04/26 04:38:35;;;;;;;19.23;6.65;;;;;;;;;;5022104;28;91776;-66
2022/04/26 04:41:02;;;;;;;14.13;6.25;;;;;;;;;;5015701;28;92403;-65
2022/04/26 04:43:28;;;;;;;17.27;7.45;;;;;;;;;;5017169;28;93052;-65
2022/04/26 04:45:54;;;;;;;13.63;7.05;;;;;;;;;;5014064;28;94869;-65
2022/04/26 04:48:21;;;;;;;15.32;7.10;;;;;;;;;;5015517;28;95840;-65
2022/04/26 04:50:47;;;;;;;19.15;7.32;;;;;;;;;;5008567;28;93486;-66
2022/04/26 04:53:13;;;;;;;19.48;7.75;;;;;;;;;;5007586;28;92763;-66
2022/04/26 04:55:40;;;;;;;18.77;7.82;;;;;;;;;;5019901;28;93269;-65
2022/04/26 04:58:07;;;;;;;13.02;7.18;;;;;;;;;;5017033;28;92701;-65
2022/04/26 05:00:33;;;;;;;16.38;8.27;;;;;;;;;;5016552;28;94600;-65
2022/04/26 05:03:00;;;;;;;20.13;8.13;;;;;;;;;;5033233;28;92665;-66
2022/04/26 05:05:26;;;;;;;19.75;8.15;;;;;;;;;;5015364;28;92454;-65
2022/04/26 05:07:53;;;;;;;14.20;7.20;;;;;;;;;;5011240;28;93438;-65
2022/04/26 05:10:19;;;;;;;15.70;7.32;;;;;;;;;;5014139;28;95997;-65
2022/04/26 05:12:45;;;;;;;16.30;7.78;;;;;;;;;;5018381;28;92554;-65
2022/04/26 05:15:12;;;;;;;15.18;7.70;;;;;;;;;;5018947;28;94086;-65
2022/04/26 05:17:38;;;;;;;15.25;7.43;;;;;;;;;;5016554;28;92394;-65
2022/04/26 05:20:05;;;;;;;18.13;7.80;;;;;;;;;;5031225;27;92914;-66
2022/04/26 05:22:31;;;;;;;15.52;6.80;;;;;;;;;;5016093;28;93994;-65
2022/04/26 05:24:58;;;;;;;21.17;7.57;;;;;;;;;;5015592;28;92436;-66
2022/04/26 05:27:25;;;;;;;14.95;7.75;;;;;;;;;;5015801;28;93480;-66
2022/04/26 05:29:52;;;;;;;17.63;7.25;;;;;;;;;;5018003;28;93221;-65
2022/04/26 05:32:19;;;;;;;18.65;7.13;;;;;;;;;;5030938;28;92451;-66
2022/04/26 05:34:46;;;;;;;17.52;7.22;;;;;;;;;;5014832;28;95081;-65
2022/04/26 05:37:13;;;;;;;16.38;6.68;;;;;;;;;;5018481;28;93605;-65
2022/04/26 05:39:39;;;;;;;20.42;7.68;;;;;;;;;;5012108;28;93060;-65
2022/04/26 05:42:05;;;;;;;16.27;7.93;;;;;;;;;;5012865;28;94157;-65
2022/04/26 05:44:32;;;;;;;17.35;6.53;;;;;;;;;;5022819;27;92691;-64
2022/04/26 05:46:58;;;;;;;14.93;7.72;;;;;;;;;;5013187;28;93352;-64
2022/04/26 05:49:24;;;;;;;20.00;6.97;;;;;;;;;;5016224;28;93436;-64
2022/04/26 05:51:51;;;;;;;18.10;7.03;;;;;;;;;;5011241;28;91702;-64
2022/04/26 05:54:17;;;;;;;19.63;6.53;;;;;;;;;;5011582;28;92829;-64
2022/04/26 05:56:43;;;;;;;15.98;7.03;;;;;;;;;;5014706;28;93718;-65
2022/04/26 05:59:10;;;;;;;19.30;6.90;;;;;;;;;;5017353;28;94852;-64
2022/04/26 06:01:37;;;;;;;14.07;5.90;;;;;;;;;;5014716;28;93186;-64
2022/04/26 06:04:05;;;;;;;16.33;6.72;;;;;;;;;;5012325;28;93750;-64
2022/04/26 06:06:31;;;;;;;17.80;6.70;;;;;;;;;;5015172;28;93157;-65
2022/04/26 06:08:57;;;;;;;17.10;6.85;;;;;;;;;;5016111;28;94302;-65
2022/04/26 06:11:24;;;;;;;18.90;6.68;;;;;;;;;;5015802;28;92497;-64
2022/04/26 06:13:51;;;;;;;21.52;7.20;;;;;;;;;;5013213;28;93198;-65
2022/04/26 06:16:17;;;;;;;16.05;6.00;;;;;;;;;;5013131;28;93953;-65
2022/04/26 06:18:43;;;;;;;26.92;6.13;;;;;;;;;;4999432;28;92495;-64
2022/04/26 06:21:10;;;;;;;18.60;7.32;;;;;;;;;;5012407;28;92814;-64
2022/04/26 06:23:36;;;;;;;16.05;6.40;;;;;;;;;;5014272;28;94895;-64
2022/04/26 06:26:02;;;;;;;9.93;4.68;;;;;;;;;;5016240;28;99270;-64
2022/04/26 06:28:29;;;;;;;13.32;5.45;;;;;;;;;;5014440;28;93129;-64
2022/04/26 06:30:55;;;;;;;11.90;4.82;;;;;;;;;;5014382;28;92448;-64
2022/04/26 06:33:22;;;;;;;16.75;5.07;;;;;;;;;;5012824;28;93172;-64
2022/04/26 06:35:50;;;;;;;14.85;5.50;;;;;;;;;;5012484;28;93392;-64
2022/04/26 06:38:17;;;;;;;25.73;4.90;;;;;;;;;;5007301;28;93241;-65
2022/04/26 06:40:43;;;;;;;15.18;5.03;;;;;;;;;;5018898;28;93766;-64
2022/04/26 06:43:11;;;;;;;17.55;5.20;;;;;;;;;;5016134;28;93491;-65
2022/04/26 06:45:37;;;;;;;12.52;4.80;;;;;;;;;;5014854;28;94005;-65
2022/04/26 06:48:07;;;;;;;20.80;5.60;;;;;;;;;;5013345;28;95907;-64
2022/04/26 06:50:34;;;;;;;14.82;5.80;;;;;;;;;;5015101;28;92479;-65
2022/04/26 06:53:00;;;;;;;18.02;5.18;;;;;;;;;;5011904;28;94382;-65
2022/04/26 06:55:27;;;;;;;12.73;4.95;;;;;;;;;;5014516;28;93365;-64
2022/04/26 06:57:53;;;;;;;13.48;5.20;;;;;;;;;;5014403;28;92543;-64
2022/04/26 07:00:19;;;;;;;15.15;5.38;;;;;;;;;;5013663;28;93184;-64
2022/04/26 07:02:46;;;;;;;13.35;5.35;;;;;;;;;;5008771;28;93846;-64
2022/04/26 07:05:13;;;;;;;15.23;5.10;;;;;;;;;;5018148;28;91659;-65
2022/04/26 07:07:40;;;;;;;15.95;5.18;;;;;;;;;;5011514;28;93261;-64
2022/04/26 07:10:07;;;;;;;12.70;5.40;;;;;;;;;;4995067;28;92429;-65
2022/04/26 07:12:33;;;;;;;9.45;4.80;;;;;;;;;;5002673;28;95005;-65
2022/04/26 07:14:59;;;;;;;18.88;6.28;;;;;;;;;;5014767;28;93354;-64
2022/04/26 07:17:26;;;;;;;11.80;4.10;;;;;;;;;;5005665;28;93734;-64
2022/04/26 07:19:52;;;;;;;18.33;4.63;;;;;;;;;;5010127;28;93124;-64
2022/04/26 07:22:27;;;;;;;20.38;5.72;;;;;;;;;;5012295;28;94088;-64
2022/04/26 07:24:53;;;;;;;13.60;3.92;;;;;;;;;;5017239;28;92447;-65
2022/04/26 07:27:20;;;;;;;21.38;5.40;;;;;;;;;;5014892;28;93567;-65
2022/04/26 07:29:50;;;;;;;17.73;4.75;;;;;;;;;;5013493;28;91725;-64
2022/04/26 07:32:16;;;;;;;14.60;4.72;;;;;;;;;;5015017;28;92471;-65
2022/04/26 07:34:42;;;;;;;13.15;4.45;;;;;;;;;;5028745;27;94145;-65
2022/04/26 07:37:09;;;;;;;19.08;5.47;;;;;;;;;;5013257;28;94785;-65
2022/04/26 07:39:35;;;;;;;14.73;4.25;;;;;;;;;;5010154;28;95587;-64
2022/04/26 07:42:03;;;;;;;12.52;4.10;;;;;;;;;;5014622;28;94559;-64
2022/04/26 07:44:30;;;;;;;20.50;4.78;;;;;;;;;;5011189;28;92797;-64
2022/04/26 07:46:57;;;;;;;13.38;4.20;;;;;;;;;;5017020;28;94305;-65
2022/04/26 07:49:24;;;;;;;12.10;4.13;;;;;;;;;;5013734;28;92575;-64
2022/04/26 07:51:51;;;;;;;13.18;4.03;;;;;;;;;;5014582;28;92908;-65
2022/04/26 07:54:17;;;;;;;15.07;4.47;;;;;;;;;;5013218;28;93171;-64
2022/04/26 07:56:44;;;;;;;15.07;3.75;;;;;;;;;;5014454;28;92728;-65
2022/04/26 07:59:11;;;;;;;15.88;3.80;;;;;;;;;;5010575;28;93237;-64
2022/04/26 08:01:37;;;;;;;12.27;4.20;;;;;;;;;;5012763;28;96256;-64
2022/04/26 08:04:04;;;;;;;11.18;3.45;;;;;;;;;;5011798;28;92509;-64
2022/04/26 08:06:30;;;;;;;17.73;3.90;;;;;;;;;;5011992;28;94024;-65
2022/04/26 08:08:58;;;;;;;14.20;3.80;;;;;;;;;;5016096;28;93372;-64
2022/04/26 08:11:25;;;;;;;14.00;4.57;;;;;;;;;;5010453;28;93841;-65
2022/04/26 08:13:52;;;;;;;18.83;4.03;;;;;;;;;;5012443;28;93455;-65
2022/04/26 08:16:18;;;;;;;15.10;3.90;;;;;;;;;;5013429;28;92390;-64
2022/04/26 08:18:44;;;;;;;14.55;3.83;;;;;;;;;;5014761;28;93118;-64
2022/04/26 08:21:14;;;;;;;22.63;4.15;;;;;;;;;;5010733;28;94448;-65
2022/04/26 08:29:14;;;;;;;11.77;4.35;;;;;;;;;;5016420;28;94265;-65
2022/04/26 08:31:41;;;;;;;13.27;4.05;;;;;;;;;;5016542;28;92458;-65
2022/04/26 08:34:07;;;;;;;10.63;3.63;;;;;;;;;;5010985;28;93571;-65
2022/04/26 08:36:34;;;;;;;13.38;3.95;;;;;;;;;;5013496;28;92926;-64
2022/04/26 08:39:00;;;;;;;11.40;4.13;;;;;;;;;;5012084;28;94228;-65
2022/04/26 08:41:27;;;;;;;14.18;4.25;;;;;;;;;;5009697;28;93215;-64
2022/04/26 08:43:53;;;;;;;7.55;4.22;;;;;;;;;;5011806;28;91698;-62
2022/04/26 08:46:19;;;;;;;11.43;3.70;;;;;;;;;;5013304;28;92379;-64
2022/04/26 08:51:31;;;;;;;7.65;4.18;;;;;;;;;;5011298;28;94919;-64
2022/04/26 08:53:57;;;;;;;12.00;4.28;;;;;;;;;;5011812;28;94280;-65
2022/04/26 08:56:24;;;;;;;12.98;4.40;;;;;;;;;;5013015;28;93971;-64
2022/04/26 08:58:51;;;;;;;11.70;4.55;;;;;;;;;;5014349;28;94349;-65
2022/04/26 09:01:19;;;;;;;11.77;4.82;;;;;;;;;;5016855;28;93587;-65
2022/04/26 09:03:54;;;;;;;12.27;4.10;;;;;;;;;;5014263;28;92580;-65
2022/04/26 09:06:30;;;;;;;12.27;4.20;;;;;;;;;;5016244;28;93159;-65
2022/04/26 09:09:05;;;;;;;8.38;4.03;;;;;;;;;;5014339;28;93314;-64
2022/04/26 09:11:34;;;;;;;16.83;4.53;;;;;;;;;;5015573;28;92457;-64
2022/04/26 09:14:02;;;;;;;8.48;3.80;;;;;;;;;;5018377;28;93205;-64
2022/04/26 09:16:28;;;;;;;10.10;4.05;;;;;;;;;;5013042;28;94983;-64
2022/04/26 09:18:59;;;;;;;7.50;3.58;;;;;;;;;;5013457;28;95592;-64
2022/04/26 09:21:28;;;;;;;;;;;;;;;;;;5016226;28;93517;-64
2022/04/26 09:23:56;;;;;;;12.77;4.00;;;;;;;;;;5015634;28;119024;-65
2022/04/26 09:26:22;;;;;;;11.30;3.97;;;;;;;;;;5015209;28;93687;-64
2022/04/26 09:28:50;;;;;;;9.85;3.70;;;;;;;;;;5012460;28;93479;-65
2022/04/26 09:31:22;;;;;;;13.65;4.55;;;;;;;;;;5016520;28;92439;-64
2022/04/26 09:33:51;;;;;;;13.35;4.28;;;;;;;;;;5015782;28;93091;-64
2022/04/26 09:36:19;;;;;;;7.45;3.75;;;;;;;;;;5026816;28;93389;-63
2022/04/26 09:38:50;;;;;;;8.18;3.97;;;;;;;;;;5013281;28;94097;-63
2022/04/26 09:41:16;;;;;;;8.65;3.92;;;;;;;;;;5013165;28;97672;-64
2022/04/26 09:43:43;;;;;;;13.38;4.22;;;;;;;;;;5015248;28;92351;-64
2022/04/26 09:46:09;;;;;;;9.30;4.00;;;;;;;;;;5012286;28;93351;-64
2022/04/26 09:48:37;;;;;;;12.38;4.20;;;;;;;;;;5009299;28;94282;-64
2022/04/26 09:51:03;;;;;;;11.93;4.88;;;;;;;;;;5015393;28;92374;-64
2022/04/26 09:53:30;;;;;;;9.77;4.18;;;;;;;;;;5014397;28;94191;-64
2022/04/26 09:55:56;;;;;;;17.02;5.00;;;;;;;;;;5014271;28;93541;-65
2022/04/26 09:58:24;;;;;;;11.25;3.97;;;;;;;;;;5019556;28;91695;-64
2022/04/26 10:00:51;;;;;;;10.30;4.20;;;;;;;;;;5016287;28;94477;-64
2022/04/26 10:03:20;;;;;;;9.13;4.13;;;;;;;;;;5010095;28;92514;-64
2022/04/26 10:05:49;;;;;;;9.15;3.80;;;;;;;;;;5014252;28;95284;-64
2022/04/26 10:08:20;;;;;;;9.65;4.00;;;;;;;;;;5012517;28;93612;-65
2022/04/26 10:10:47;;;;;;;9.25;3.95;;;;;;;;;;5015795;28;93118;-65
2022/04/26 10:16:11;;;;;;;7.28;3.28;;;;;;;;;;5015996;28;93490;-65
2022/04/26 10:18:39;;;;;;;11.45;2.95;;;;;;;;;;5010419;28;92522;-65
2022/04/26 10:21:06;;;;;;;10.05;3.83;;;;;;;;;;5014913;28;93374;-65
2022/04/26 10:23:51;;;;;;;10.45;4.05;;;;;;;;;;5013885;28;91646;-65
2022/04/26 10:26:23;;;;;;;8.90;3.08;;;;;;;;;;5015568;28;92497;-65
2022/04/26 10:28:51;;;;;;;7.72;4.05;;;;;;;;;;5011735;28;93220;-64
2022/04/26 10:31:17;;;;;;;7.28;3.20;;;;;;;;;;5007262;28;95361;-64
2022/04/26 10:33:47;;;;;;;8.85;4.07;;;;;;;;;;5015057;28;95816;-64
2022/04/26 10:36:20;;;;;;;3.83;2.63;;;;;;;;;;5014417;28;94439;-64
2022/04/26 10:39:07;;;;;;;6.78;3.30;;;;;;;;;;5015311;28;92420;-64
2022/04/26 10:41:35;;;;;;;9.40;2.50;;;;;;;;;;5004666;28;93320;-64
2022/04/26 10:44:14;;;;;;;8.13;2.83;;;;;;;;;;5017754;28;94280;-63
2022/04/26 10:46:41;;;;;;;6.20;2.70;;;;;;;;;;5010624;28;92975;-64
2022/04/26 10:49:25;;;;;;;5.57;3.13;;;;;;;;;;5012455;28;91752;-64
2022/04/26 10:51:52;;;;;;;6.57;2.90;;;;;;;;;;5025209;28;92452;-64
2022/04/26 10:54:37;;;;;;;7.05;3.03;;;;;;;;;;5014767;28;94218;-64
2022/04/26 10:57:03;;;;;;;9.70;3.03;;;;;;;;;;5013275;28;95598;-64
2022/04/26 10:59:30;;;;;;;10.75;3.13;;;;;;;;;;5030294;27;93279;-63
2022/04/26 11:01:56;;;;;;;5.18;2.60;;;;;;;;;;5013924;28;92955;-64
2022/04/26 11:04:23;;;;;;;3.47;2.95;;;;;;;;;;5015011;28;94719;-65
2022/04/26 11:06:50;;;;;;;24.05;4.57;;;;;;;;;;5015410;28;93394;-65
2022/04/26 11:09:16;;;;;;;8.95;2.72;;;;;;;;;;5012134;28;93901;-64
2022/04/26 11:12:02;;;;;;;12.25;3.05;;;;;;;;;;5015402;28;92423;-64
2022/04/26 11:14:29;;;;;;;11.45;2.97;;;;;;;;;;5015570;28;93009;-65
2022/04/26 11:17:03;;;;;;;8.85;3.25;;;;;;;;;;5009609;28;93348;-64
2022/04/26 11:19:31;;;;;;;9.88;2.65;;;;;;;;;;5015011;28;92406;-64
2022/04/26 11:22:04;;;;;;;5.32;2.80;;;;;;;;;;5012987;28;95084;-65
2022/04/26 11:30:02;;;;;;;8.20;3.22;;;;;;;;;;5014768;28;93530;-65
2022/04/26 11:32:28;;;;;;;6.70;3.10;;;;;;;;;;5013322;28;92483;-64
2022/04/26 11:34:54;;;;;;;7.88;3.03;;;;;;;;;;5015803;28;92891;-65
2022/04/26 11:37:21;;;;;;;12.43;2.60;;;;;;;;;;5013811;28;93372;-65
2022/04/26 11:39:47;;;;;;;4.78;2.60;;;;;;;;;;5012228;28;92113;-65
2022/04/26 11:42:13;;;;;;;9.20;2.90;;;;;;;;;;5013677;28;92447;-64
2022/04/26 11:44:55;;;;;;;6.40;3.00;;;;;;;;;;5014482;28;93515;-64
2022/04/26 11:47:35;;;;;;;7.60;2.50;;;;;;;;;;5002617;28;96689;-64
2022/04/26 11:50:08;;;;;;;9.73;2.58;;;;;;;;;;5012525;28;94065;-65
2022/04/26 11:52:35;;;;;;;10.40;3.13;;;;;;;;;;5006272;28;94267;-64
2022/04/26 11:55:01;;;;;;;4.72;2.67;;;;;;;;;;5013605;28;93152;-65
2022/04/26 11:57:27;;;;;;;8.23;2.10;;;;;;;;;;5010847;28;96198;-64
2022/04/26 11:59:54;;;;;;;3.58;2.08;;;;;;;;;;5010537;28;92831;-64
2022/04/26 12:02:20;;;;;;;3.15;2.00;;;;;;;;;;5011058;28;93126;-64
2022/04/26 12:04:48;;;;;;;2.58;2.10;;;;;;;;;;5013957;28;92627;-65
2022/04/26 12:07:15;;;;;;;5.85;2.72;;;;;;;;;;5013481;28;92437;-64
2022/04/26 12:09:42;;;;;;;5.25;1.88;;;;;;;;;;5010038;28;93280;-64
2022/04/26 12:12:10;;;;;;;6.43;3.10;;;;;;;;;;5014102;28;95603;-64
2022/04/26 12:14:40;;;;;;;6.63;2.33;;;;;;;;;;5028456;28;95553;-64
2022/04/26 12:17:17;;;;;;;3.97;2.25;;;;;;;;;;5010559;28;93224;-64
2022/04/26 12:19:50;;;;;;;7.13;2.20;;;;;;;;;;5012642;28;92439;-64
2022/04/26 12:22:19;;;;;;;7.40;2.25;;;;;;;;;;5014283;28;94097;-64
2022/04/26 12:24:47;;;;;;;7.13;2.25;;;;;;;;;;5013890;28;94482;-65
2022/04/26 12:27:14;;;;;;;3.45;2.60;;;;;;;;;;5027974;27;92585;-64
2022/04/26 12:29:48;;;;;;;8.88;2.55;;;;;;;;;;5014114;28;94175;-64
2022/04/26 12:32:24;;;;;;;8.20;2.60;;;;;;;;;;5011712;28;93554;-64
2022/04/26 12:34:57;;;;;;;3.90;2.30;;;;;;;;;;5020518;28;92417;-64
2022/04/26 12:37:26;;;;;;;6.80;2.55;;;;;;;;;;5010595;28;95857;-65
2022/04/26 12:39:54;;;;;;;6.85;2.45;;;;;;;;;;5017262;28;92432;-62
2022/04/26 12:42:26;;;;;;;7.38;2.67;;;;;;;;;;5015393;28;92438;-63
2022/04/26 12:44:59;;;;;;;8.90;2.50;;;;;;;;;;5016044;28;93341;-62
2022/04/26 12:50:28;;;;;;;5.28;2.47;;;;;;;;;;5016948;28;93514;-63
2022/04/26 12:52:58;;;;;;;16.23;2.50;;;;;;;;;;5016002;28;93295;-64
2022/04/26 12:55:25;;;;;;;4.88;2.67;;;;;;;;;;5032226;28;91822;-64
2022/04/26 12:57:52;;;;;;;15.00;2.85;;;;;;;;;;5019653;28;93162;-63
2022/04/26 13:00:20;;;;;;;8.43;2.28;;;;;;;;;;5015622;28;93964;-64
2022/04/26 13:02:51;;;;;;;3.42;2.20;;;;;;;;;;5012311;28;94959;-65
2022/04/26 13:05:19;;;;;;;11.35;2.85;;;;;;;;;;5015903;28;93603;-64
2022/04/26 13:07:46;;;;;;;5.93;2.38;;;;;;;;;;5015712;28;92504;-64
2022/04/26 13:10:13;;;;;;;9.32;2.40;;;;;;;;;;5015987;28;93094;-64
2022/04/26 13:12:39;;;;;;;2.55;1.95;;;;;;;;;;5017239;28;94625;-63
2022/04/26 13:15:08;;;;;;;10.05;2.20;;;;;;;;;;5016615;28;92485;-64
2022/04/26 13:17:37;;;;;;;5.15;2.25;;;;;;;;;;5029874;27;93357;-64
2022/04/26 13:20:04;;;;;;;4.35;2.10;;;;;;;;;;5019786;28;92742;-64
2022/04/26 13:22:32;;;;;;;7.05;2.63;;;;;;;;;;5017486;28;93244;-63
2022/04/26 13:24:58;;;;;;;4.03;1.90;;;;;;;;;;5015988;28;93205;-63
2022/04/26 13:27:24;;;;;;;4.38;2.00;;;;;;;;;;5012208;28;94946;-63
2022/04/26 13:29:51;;;;;;;4.10;2.05;;;;;;;;;;5015145;28;95525;-63
2022/04/26 13:32:17;;;;;;;4.72;1.83;;;;;;;;;;5013459;28;93662;-63
2022/04/26 13:34:44;;;;;;;11.00;2.30;;;;;;;;;;5015452;28;92475;-63
2022/04/26 13:37:11;;;;;;;5.47;2.10;;;;;;;;;;5016346;28;94234;-64
2022/04/26 13:39:43;;;;;;;2.50;1.75;;;;;;;;;;5018669;28;93284;-63
2022/04/26 13:42:10;;;;;;;10.00;2.10;;;;;;;;;;5012858;28;92845;-63
2022/04/26 13:44:36;;;;;;;5.32;2.30;;;;;;;;;;5017700;28;93277;-63
2022/04/26 13:47:04;;;;;;;5.95;2.05;;;;;;;;;;5017307;27;92406;-63
2022/04/26 13:49:34;;;;;;;2.88;1.95;;;;;;;;;;5016060;28;93050;-63
2022/04/26 13:52:01;;;;;;;7.65;1.88;;;;;;;;;;5012241;28;96365;-62
2022/04/26 13:54:27;;;;;;;4.90;1.83;;;;;;;;;;5012934;28;92460;-62
2022/04/26 13:56:54;;;;;;;13.63;3.88;;;;;;;;;;5014552;28;93186;-62
2022/04/26 13:59:22;;;;;;;68.53;16.77;;;;;;;;;;5016008;28;93388;-63
2022/04/26 14:01:49;;;;;;;29.13;6.72;;;;;;;;;;5017280;28;92584;-62
2022/04/26 14:04:16;;;;;;;4.38;2.25;;;;;;;;;;5012185;28;94215;-63
2022/04/26 14:06:42;;;;;;;23.38;5.30;;;;;;;;;;5015356;28;92486;-63
2022/04/26 14:09:09;;;;;;;18.92;5.90;;;;;;;;;;5013430;28;96107;-63
2022/04/26 14:11:35;;;;;;;7.25;2.95;;;;;;;;;;5015147;28;94957;-62
2022/04/26 14:22:32;;;;;;;6.43;2.70;;;;;;;;;;5013128;28;93658;-62
2022/04/26 14:36:53;;;;;;;2.40;1.40;;;;;;;;;;5071107;27;87471;-72
2022/04/26 14:39:21;;;;;;;4.03;1.60;;;;;;;;;;5034055;27;87678;-72
2022/04/26 14:41:47;;;;;;;3.00;1.67;;;;;;;;;;5034821;27;88629;-72
2022/04/26 14:44:14;;;;;;;3.38;1.48;;;;;;;;;;5030634;28;88079;-71
2022/04/26 14:46:40;;;;;;;4.43;1.48;;;;;;;;;;5034773;27;87671;-72
2022/04/26 14:49:06;;;;;;;2.55;1.30;;;;;;;;;;5026954;27;87417;-70
2022/04/26 14:51:33;;;;;;;3.42;1.52;;;;;;;;;;5044504;27;88511;-71
2022/04/26 14:53:59;;;;;;;3.15;1.70;;;;;;;;;;5031630;27;87812;-70
2022/04/26 14:56:25;;;;;;;1.90;1.35;;;;;;;;;;5055350;27;87121;-70
2022/04/26 14:59:12;;;;;;;1.50;1.40;;;;;;;;;;5027926;27;89409;-72
2022/04/26 15:01:43;;;;;;;3.65;1.95;;;;;;;;;;5033305;28;87481;-72
2022/04/26 15:04:10;;;;;;;3.58;1.75;;;;;;;;;;5043863;27;87494;-72
2022/04/26 15:06:36;;;;;;;2.20;1.27;;;;;;;;;;5034306;27;89306;-71
2022/04/26 15:11:48;;;;;;;2.05;1.70;;;;;;;;;;5017965;28;87563;-71
2022/04/26 15:17:00;;;;;;;6.45;2.10;;;;;;;;;;5016868;27;88532;-69
2022/04/26 15:19:32;;;;;;;2.85;2.05;;;;;;;;;;5052338;27;87751;-72
2022/04/26 15:21:59;;;;;;;3.28;1.92;;;;;;;;;;5027567;27;87561;-70
2022/04/26 15:24:25;;;;;;;2.90;1.88;;;;;;;;;;5024376;27;87970;-70
2022/04/26 15:26:51;;;;;;;4.50;2.47;;;;;;;;;;5015178;27;88723;-70
2022/04/26 15:29:19;;;;;;;3.35;1.80;;;;;;;;;;5031563;28;87716;-70
2022/04/26 15:31:45;;;;;;;5.50;2.60;;;;;;;;;;5034308;27;88414;-71
2022/04/26 15:34:11;;;;;;;4.03;2.03;;;;;;;;;;5051615;27;86972;-70
2022/04/26 15:36:38;;;;;;;6.50;2.35;;;;;;;;;;5029476;28;89009;-70
2022/04/26 15:39:04;;;;;;;5.97;2.60;;;;;;;;;;5018184;27;87544;-71
2022/04/26 15:41:32;;;;;;;4.13;2.38;;;;;;;;;;5034842;27;88074;-71
2022/04/26 15:44:00;;;;;;;5.60;2.75;;;;;;;;;;5030280;27;88687;-71
2022/04/26 15:46:42;;;;;;;7.95;2.90;;;;;;;;;;5031274;27;87898;-71
2022/04/26 15:49:09;;;;;;;9.80;2.80;;;;;;;;;;5020334;28;87290;-72
2022/04/26 15:51:35;;;;;;;9.75;2.50;;;;;;;;;;5019137;28;86923;-71
2022/04/26 15:54:02;;;;;;;3.75;2.47;;;;;;;;;;5018675;28;89052;-71
2022/04/26 15:56:29;;;;;;;8.00;2.30;;;;;;;;;;5023079;28;87498;-71
2022/04/26 15:58:56;;;;;;;6.22;2.28;;;;;;;;;;5020757;28;88535;-71
2022/04/26 16:01:23;;;;;;;6.97;2.55;;;;;;;;;;5019832;28;88195;-69
2022/04/26 16:03:50;;;;;;;6.47;3.00;;;;;;;;;;5020853;28;87475;-70
2022/04/26 16:06:16;;;;;;;8.88;2.80;;;;;;;;;;5019539;28;87828;-70
2022/04/26 16:08:43;;;;;;;6.95;3.03;;;;;;;;;;5020318;28;87229;-70
2022/04/26 16:22:08;;;;;;;7.13;2.70;;;;;;;;;;5000142;28;87679;-70
2022/04/26 16:24:40;;;;;;;2.92;2.55;;;;;;;;;;5018058;28;87980;-70
2022/04/26 16:27:07;;;;;;;4.45;2.38;;;;;;;;;;5021472;28;87767;-70
2022/04/26 16:29:34;;;;;;;5.35;2.25;;;;;;;;;;5003021;28;88185;-70
2022/04/26 16:32:01;;;;;;;4.97;2.33;;;;;;;;;;5026365;28;87521;-71
2022/04/26 16:34:27;;;;;;;4.55;2.30;;;;;;;;;;5039965;27;87765;-70
2022/04/26 16:36:54;;;;;;;6.03;2.55;;;;;;;;;;5036189;27;87204;-70
2022/04/26 16:39:20;;;;;;;6.40;2.53;;;;;;;;;;5017744;28;88533;-70
2022/04/26 16:41:46;;;;;;;4.13;2.20;;;;;;;;;;5020088;28;87913;-71
2022/04/26 16:44:13;;;;;;;4.63;2.25;;;;;;;;;;5005460;28;87164;-71
2022/04/26 16:46:39;;;;;;;3.55;2.20;;;;;;;;;;5014056;28;87591;-70
2022/04/26 16:49:06;;;;;;;4.97;2.95;;;;;;;;;;5020892;28;86860;-71
2022/04/26 16:51:34;;;;;;;11.10;2.83;;;;;;;;;;5019984;28;87708;-71
2022/04/26 16:54:01;;;;;;;5.05;2.30;;;;;;;;;;5019828;28;88377;-71
2022/04/26 16:56:27;;;;;;;8.85;2.70;;;;;;;;;;5003390;28;87300;-71
2022/04/26 16:58:53;;;;;;;4.75;2.60;;;;;;;;;;5013509;28;87198;-70
2022/04/26 17:01:20;;;;;;;6.97;2.53;;;;;;;;;;5011110;28;87858;-71
2022/04/26 17:03:46;;;;;;;10.95;3.03;;;;;;;;;;5017548;28;87365;-71
2022/04/26 17:06:12;;;;;;;2.50;2.20;;;;;;;;;;5018461;28;86766;-70
2022/04/26 17:08:39;;;;;;;13.70;2.92;;;;;;;;;;5019066;28;88668;-72
2022/04/26 17:13:50;;;;;;;5.97;3.15;;;;;;;;;;5017202;28;89871;-71
2022/04/26 17:16:16;;;;;;;6.63;2.90;;;;;;;;;;5019081;28;88417;-71
2022/04/26 17:18:43;;;;;;;9.52;3.15;;;;;;;;;;5005810;28;87565;-70
2022/04/26 17:21:09;;;;;;;11.88;3.60;;;;;;;;;;5013667;28;88369;-70
2022/04/26 17:23:35;;;;;;;5.72;2.60;;;;;;;;;;5016435;28;87240;-69
2022/04/26 17:26:02;;;;;;;12.25;3.00;;;;;;;;;;5010921;28;88606;-69
2022/04/26 17:28:28;;;;;;;5.55;3.03;;;;;;;;;;4999536;28;88958;-70
2022/04/26 17:30:56;;;;;;;5.25;2.63;;;;;;;;;;5005137;28;87500;-69
2022/04/26 17:33:22;;;;;;;7.95;2.90;;;;;;;;;;4997867;28;88053;-69
2022/04/26 17:35:49;;;;;;;7.05;2.85;;;;;;;;;;5012958;28;87888;-68
2022/04/26 17:38:15;;;;;;;5.65;2.80;;;;;;;;;;5019391;28;87641;-71
2022/04/26 17:40:41;;;;;;;8.35;3.55;;;;;;;;;;5016163;28;86881;-71
2022/04/26 17:43:08;;;;;;;11.38;3.20;;;;;;;;;;5000876;28;87493;-71
2022/04/26 17:45:35;;;;;;;7.43;3.10;;;;;;;;;;5025634;28;88035;-70
2022/04/26 17:48:01;;;;;;;4.20;2.60;;;;;;;;;;5017818;28;87845;-70
2022/04/26 17:50:28;;;;;;;6.47;2.97;;;;;;;;;;5016606;28;87694;-70
2022/04/26 17:58:24;;;;;;;11.35;3.40;;;;;;;;;;5002112;28;88036;-73
2022/04/26 18:00:50;;;;;;;7.22;3.03;;;;;;;;;;5030675;28;88150;-72
2022/04/26 18:03:18;;;;;;;4.18;2.55;;;;;;;;;;5016569;28;87193;-72
2022/04/26 18:05:45;;;;;;;6.75;3.05;;;;;;;;;;5013170;28;87900;-71
2022/04/26 18:08:11;;;;;;;5.60;2.72;;;;;;;;;;5018943;28;87536;-71
2022/04/26 18:10:39;;;;;;;8.27;3.20;;;;;;;;;;5015408;28;86791;-71
2022/04/26 18:13:06;;;;;;;5.75;2.88;;;;;;;;;;5006068;28;87361;-71
2022/04/26 18:15:32;;;;;;;9.10;2.90;;;;;;;;;;5015517;28;87921;-71
2022/04/26 18:17:59;;;;;;;9.75;3.45;;;;;;;;;;5018683;28;87265;-71
2022/04/26 18:20:31;;;;;;;12.43;3.97;;;;;;;;;;5016357;28;87856;-72
2022/04/26 18:22:57;;;;;;;11.20;3.13;;;;;;;;;;5015608;28;87227;-72
2022/04/26 18:28:08;;;;;;;12.52;3.20;;;;;;;;;;5000742;28;87542;-73
2022/04/26 18:30:34;;;;;;;5.47;3.13;;;;;;;;;;4998580;28;87199;-73
2022/04/26 18:33:01;;;;;;;14.63;4.07;;;;;;;;;;5004091;28;87376;-73
2022/04/26 18:35:27;;;;;;;6.88;3.17;;;;;;;;;;5014406;28;87517;-73
2022/04/26 18:37:53;;;;;;;16.60;2.88;;;;;;;;;;5019086;28;87370;-73
2022/04/26 18:40:20;;;;;;;8.77;3.00;;;;;;;;;;5033049;28;87629;-74
2022/04/26 18:42:47;;;;;;;9.38;3.00;;;;;;;;;;5038554;27;86760;-73
2022/04/26 18:45:13;;;;;;;8.80;2.95;;;;;;;;;;5024563;27;88910;-73
2022/04/26 18:47:40;;;;;;;9.40;3.17;;;;;;;;;;5015295;28;87335;-73
2022/04/26 18:50:06;;;;;;;8.43;3.33;;;;;;;;;;5017111;28;87975;-73
2022/04/26 18:52:33;;;;;;;12.13;4.13;;;;;;;;;;4995382;28;88901;-73
2022/04/26 18:54:59;;;;;;;8.20;3.38;;;;;;;;;;5023771;28;88770;-72
2022/04/26 18:57:26;;;;;;;7.13;3.05;;;;;;;;;;5019243;28;89453;-73
2022/04/26 18:59:52;;;;;;;8.90;3.30;;;;;;;;;;4997894;28;89958;-73
2022/04/26 19:02:19;;;;;;;11.90;3.35;;;;;;;;;;5000451;28;91652;-74
2022/04/26 19:04:46;;;;;;;9.25;3.30;;;;;;;;;;5016015;28;89605;-74
2022/04/26 19:07:12;;;;;;;13.68;3.72;;;;;;;;;;5015775;28;87997;-73
2022/04/26 19:12:15;;;;;;;12.60;3.20;;;;;;;;;;5031251;28;88932;-73
2022/04/26 19:12:24;;;;;;;10.77;3.20;;;;;;;;;;5032605;27;88072;-73
2022/04/26 19:14:51;;;;;;;9.43;3.33;;;;;;;;;;4998071;28;89115;-73
2022/04/26 19:17:19;;;;;;;11.27;3.35;;;;;;;;;;5003244;28;88462;-73
2022/04/26 19:19:46;;;;;;;9.45;3.33;;;;;;;;;;5017878;28;89846;-73
2022/04/26 19:22:12;;;;;;;9.32;3.47;;;;;;;;;;5017423;28;89588;-73
2022/04/26 19:24:39;;;;;;;6.97;3.20;;;;;;;;;;5013534;28;90011;-73